Time;durP1;ratioP1;P1;durP2;ratioP2;P2;SDS_P1;SDS_P2;PMS_P1;PMS_P2;Temp;Humidity;BMP_temperature;BMP_pressure;BME280_temperature;BME280_humidity;BME280_pressure;Samples;Min_cycle;Max_cycle;Signal;HPM_P1;HPM_P2
2021/06/20 00:01:58;;;;;;;8.70;7.23;;;22.20;99.90;;;;;;5010901;28;20472;-77
2021/06/20 00:04:25;;;;;;;14.43;8.73;;;22.20;99.90;;;;;;5027804;28;20922;-77
2021/06/20 00:06:52;;;;;;;12.70;9.03;;;22.10;99.90;;;;;;5011508;28;20668;-77
2021/06/20 00:09:20;;;;;;;10.57;8.17;;;22.10;99.90;;;;;;5011557;28;20964;-77
2021/06/20 00:11:48;;;;;;;9.80;8.80;;;21.90;99.90;;;;;;5025740;28;20456;-77
2021/06/20 00:14:16;;;;;;;9.70;8.27;;;21.90;99.90;;;;;;5031711;28;20435;-77
2021/06/20 00:16:43;;;;;;;18.43;10.37;;;21.90;99.90;;;;;;4997981;28;20461;-77
2021/06/20 00:19:11;;;;;;;12.63;8.97;;;21.90;99.90;;;;;;4991295;28;20449;-77
2021/06/20 00:21:38;;;;;;;12.87;8.53;;;22.00;99.90;;;;;;4994590;28;20473;-77
2021/06/20 00:24:06;;;;;;;16.23;9.67;;;21.90;99.90;;;;;;5002629;28;20928;-77
2021/06/20 00:26:33;;;;;;;10.93;8.97;;;21.90;99.90;;;;;;4991976;28;20481;-77
2021/06/20 00:29:00;;;;;;;14.20;9.70;;;21.90;99.90;;;;;;4992286;28;20899;-77
2021/06/20 00:31:27;;;;;;;14.87;10.47;;;21.80;99.90;;;;;;5001320;28;20473;-77
2021/06/20 00:33:54;;;;;;;14.10;10.63;;;21.80;99.90;;;;;;5012207;28;20930;-77
2021/06/20 00:36:21;;;;;;;17.83;10.20;;;21.80;99.90;;;;;;5011225;28;20464;-77
2021/06/20 00:38:48;;;;;;;12.60;10.00;;;21.80;99.90;;;;;;5011790;28;20452;-77
2021/06/20 00:41:15;;;;;;;12.27;8.90;;;21.80;99.90;;;;;;5011825;28;20447;-77
2021/06/20 00:43:42;;;;;;;11.13;8.60;;;21.70;99.90;;;;;;5027488;28;20445;-77
2021/06/20 00:46:09;;;;;;;11.87;8.67;;;21.50;99.90;;;;;;5025900;28;21016;-77
2021/06/20 00:48:37;;;;;;;12.10;9.07;;;21.50;99.90;;;;;;5012146;28;20448;-77
2021/06/20 00:51:04;;;;;;;15.53;8.80;;;21.50;99.90;;;;;;5012013;28;20544;-77
2021/06/20 00:53:31;;;;;;;14.30;9.27;;;21.50;99.90;;;;;;5011793;28;20531;-77
2021/06/20 00:55:59;;;;;;;11.23;9.27;;;21.50;99.90;;;;;;5011466;28;20477;-77
2021/06/20 00:58:26;;;;;;;8.33;7.27;;;21.50;99.90;;;;;;5011450;28;20486;-77
2021/06/20 01:00:53;;;;;;;10.73;6.83;;;21.40;99.90;;;;;;5010876;28;20486;-77
2021/06/20 01:03:20;;;;;;;12.13;7.50;;;21.40;99.90;;;;;;5012115;28;20854;-77
2021/06/20 01:05:48;;;;;;;10.70;7.93;;;21.30;99.90;;;;;;5011547;28;20482;-76
2021/06/20 01:08:15;;;;;;;8.37;6.87;;;21.20;99.90;;;;;;5009962;28;20490;-77
2021/06/20 01:10:42;;;;;;;12.07;7.57;;;21.10;99.90;;;;;;5011323;28;20864;-77
2021/06/20 01:13:12;;;;;;;9.60;6.90;;;21.10;99.90;;;;;;5011845;28;20972;-77
2021/06/20 01:15:40;;;;;;;9.63;7.30;;;21.20;99.90;;;;;;5009860;28;20453;-77
2021/06/20 01:18:09;;;;;;;8.13;6.93;;;21.10;99.90;;;;;;5011673;28;20547;-77
2021/06/20 01:20:37;;;;;;;7.90;6.93;;;21.10;99.90;;;;;;5030582;28;20461;-77
2021/06/20 01:23:04;;;;;;;11.13;6.33;;;21.10;99.90;;;;;;5010407;28;20522;-77
2021/06/20 01:25:32;;;;;;;8.63;6.17;;;21.10;99.90;;;;;;5010427;28;20460;-77
2021/06/20 01:28:07;;;;;;;8.10;5.53;;;21.10;99.90;;;;;;5010795;28;20452;-77
2021/06/20 01:30:36;;;;;;;7.50;5.30;;;21.10;99.90;;;;;;5013329;28;20459;-77
2021/06/20 01:33:07;;;;;;;7.03;4.70;;;21.20;99.90;;;;;;5030696;28;20434;-77
2021/06/20 01:35:34;;;;;;;8.90;5.30;;;21.10;99.90;;;;;;5014984;28;20973;-77
2021/06/20 01:38:03;;;;;;;6.63;5.03;;;21.10;99.90;;;;;;5014508;28;20502;-77
2021/06/20 01:40:30;;;;;;;8.80;6.53;;;21.20;99.90;;;;;;5014831;28;20457;-77
2021/06/20 01:42:58;;;;;;;11.37;7.13;;;21.20;99.90;;;;;;5030566;28;20418;-77
2021/06/20 01:45:27;;;;;;;11.70;7.83;;;21.20;99.90;;;;;;5015065;28;20450;-77
2021/06/20 01:47:56;;;;;;;9.73;7.30;;;21.20;99.90;;;;;;5014402;28;20490;-77
2021/06/20 01:50:23;;;;;;;12.97;7.10;;;21.20;99.90;;;;;;5013343;28;20995;-77
2021/06/20 01:53:07;;;;;;;10.07;6.50;;;21.30;99.90;;;;;;5014725;28;20802;-77
2021/06/20 01:55:36;;;;;;;8.83;7.53;;;21.20;99.90;;;;;;5014559;28;20463;-77
2021/06/20 01:58:07;;;;;;;10.83;7.20;;;21.30;99.90;;;;;;5013458;28;20492;-77
2021/06/20 02:00:39;;;;;;;9.73;7.00;;;21.30;99.90;;;;;;5008996;28;20996;-77
2021/06/20 02:03:11;;;;;;;12.80;7.20;;;21.40;99.90;;;;;;5021832;28;20489;-77
2021/06/20 02:05:42;;;;;;;14.70;8.00;;;21.50;99.90;;;;;;5010776;28;20451;-77
2021/06/20 02:08:19;;;;;;;12.27;6.67;;;21.60;99.90;;;;;;5014422;28;20461;-77
2021/06/20 02:10:47;;;;;;;9.73;7.90;;;21.60;99.90;;;;;;5044652;28;20452;-74
2021/06/20 02:13:16;;;;;;;10.87;8.20;;;21.70;99.90;;;;;;5034671;28;20845;-75
2021/06/20 02:15:43;;;;;;;13.90;9.20;;;21.90;99.90;;;;;;5016154;28;20478;-74
2021/06/20 02:18:11;;;;;;;12.90;9.43;;;21.80;99.90;;;;;;5017715;28;20460;-75
2021/06/20 02:20:39;;;;;;;13.13;8.90;;;21.90;99.90;;;;;;5032389;28;20460;-74
2021/06/20 02:23:07;;;;;;;10.50;7.83;;;21.90;99.90;;;;;;5032398;28;20447;-74
2021/06/20 02:25:34;;;;;;;10.97;8.10;;;21.90;99.90;;;;;;5033667;28;20851;-75
2021/06/20 02:28:02;;;;;;;13.30;7.23;;;21.90;99.90;;;;;;5032320;28;20482;-75
2021/06/20 02:30:29;;;;;;;9.63;7.00;;;21.90;99.90;;;;;;5028737;28;20456;-76
2021/06/20 02:32:56;;;;;;;12.77;7.20;;;22.00;99.90;;;;;;5033125;28;20535;-74
2021/06/20 02:35:24;;;;;;;6.70;5.40;;;21.90;99.90;;;;;;5032596;28;20979;-75
2021/06/20 02:37:51;;;;;;;11.00;5.60;;;21.90;99.90;;;;;;5020044;28;20468;-75
2021/06/20 02:40:19;;;;;;;8.20;5.33;;;21.90;99.90;;;;;;5013810;28;20432;-75
2021/06/20 02:42:46;;;;;;;6.43;4.60;;;21.80;99.90;;;;;;5014101;28;20425;-75
2021/06/20 02:45:17;;;;;;;7.33;4.20;;;21.80;99.90;;;;;;5013797;28;20786;-75
2021/06/20 02:47:46;;;;;;;10.17;4.70;;;21.80;99.90;;;;;;5040573;28;20543;-74
2021/06/20 02:50:15;;;;;;;7.23;4.27;;;21.70;99.90;;;;;;5032369;28;20417;-76
2021/06/20 02:52:43;;;;;;;7.53;4.27;;;21.70;99.90;;;;;;5032539;28;20538;-75
2021/06/20 02:55:11;;;;;;;4.40;3.73;;;21.70;99.90;;;;;;5033358;28;20417;-75
2021/06/20 02:57:38;;;;;;;4.30;3.90;;;21.60;99.90;;;;;;5033403;28;20420;-74
2021/06/20 03:00:06;;;;;;;4.73;3.97;;;21.50;99.90;;;;;;5032582;28;20467;-75
2021/06/20 03:02:33;;;;;;;3.93;3.53;;;21.50;99.90;;;;;;5033136;28;20424;-75
2021/06/20 03:05:00;;;;;;;5.10;2.90;;;21.40;99.90;;;;;;5034188;28;20776;-75
2021/06/20 03:07:28;;;;;;;5.43;3.00;;;21.40;99.90;;;;;;5022279;28;20556;-75
2021/06/20 03:09:55;;;;;;;5.20;2.93;;;21.30;99.90;;;;;;5033130;28;21010;-75
2021/06/20 03:12:22;;;;;;;4.00;2.93;;;21.30;99.90;;;;;;5032208;28;20470;-75
2021/06/20 03:14:50;;;;;;;3.60;3.03;;;21.30;99.90;;;;;;5014905;28;20788;-75
2021/06/20 03:17:18;;;;;;;7.83;3.80;;;21.30;99.90;;;;;;5031221;28;20472;-75
2021/06/20 03:19:46;;;;;;;7.80;4.50;;;21.30;99.90;;;;;;5033275;28;20444;-75
2021/06/20 03:22:13;;;;;;;7.67;3.20;;;21.20;99.90;;;;;;5031623;28;20479;-75
2021/06/20 03:24:47;;;;;;;6.50;3.50;;;21.20;99.90;;;;;;5033184;28;20428;-75
2021/06/20 03:27:14;;;;;;;9.50;2.70;;;21.20;99.90;;;;;;5032408;28;20483;-74
2021/06/20 03:29:41;;;;;;;4.00;2.90;;;21.10;99.90;;;;;;5031197;28;20447;-75
2021/06/20 03:32:08;;;;;;;7.07;5.17;;;21.00;99.90;;;;;;5032674;28;20487;-75
2021/06/20 03:34:35;;;;;;;8.30;2.93;;;21.10;99.90;;;;;;5032966;28;20426;-75
2021/06/20 03:37:03;;;;;;;4.13;2.60;;;21.00;99.90;;;;;;5031262;28;20476;-75
2021/06/20 03:39:31;;;;;;;4.87;2.83;;;21.00;99.90;;;;;;5033023;28;21066;-75
2021/06/20 03:41:58;;;;;;;5.13;3.40;;;21.00;99.90;;;;;;5030627;28;20463;-74
2021/06/20 03:44:25;;;;;;;3.67;3.37;;;21.00;99.90;;;;;;5031811;28;20441;-74
2021/06/20 03:46:52;;;;;;;2.73;2.53;;;20.90;99.90;;;;;;5042776;28;20472;-74
2021/06/20 03:49:19;;;;;;;4.37;2.10;;;20.80;99.90;;;;;;5031419;28;20844;-75
2021/06/20 03:51:46;;;;;;;5.40;2.87;;;20.80;99.90;;;;;;5031094;28;20486;-75
2021/06/20 03:54:13;;;;;;;4.43;2.50;;;20.70;99.90;;;;;;5032942;28;20423;-75
2021/06/20 03:56:40;;;;;;;5.53;3.03;;;20.70;99.90;;;;;;5030728;28;20467;-75
2021/06/20 03:59:09;;;;;;;4.23;2.20;;;20.60;99.90;;;;;;5032331;28;20960;-74
2021/06/20 04:01:36;;;;;;;3.27;2.70;;;20.60;99.90;;;;;;5031323;28;20482;-76
2021/06/20 04:04:04;;;;;;;5.77;2.40;;;20.60;99.90;;;;;;5031199;28;20433;-75
2021/06/20 04:06:31;;;;;;;4.13;2.30;;;20.60;99.90;;;;;;5029508;28;20468;-75
2021/06/20 04:08:58;;;;;;;6.80;2.57;;;20.50;99.90;;;;;;5031061;28;20809;-75
2021/06/20 04:11:26;;;;;;;6.47;2.30;;;20.60;99.90;;;;;;5030732;28;20462;-75
2021/06/20 04:13:53;;;;;;;4.73;2.63;;;20.50;99.90;;;;;;5032517;28;20518;-74
2021/06/20 04:16:21;;;;;;;3.90;2.03;;;20.50;99.90;;;;;;5030853;28;20455;-75
2021/06/20 04:18:48;;;;;;;2.20;2.00;;;20.50;99.90;;;;;;5030772;28;20447;-75
2021/06/20 04:21:15;;;;;;;4.80;2.53;;;20.40;99.90;;;;;;5031438;28;20461;-74
2021/06/20 04:23:44;;;;;;;2.70;2.20;;;20.40;99.90;;;;;;5030956;28;20436;-75
2021/06/20 04:26:12;;;;;;;3.63;2.13;;;20.40;99.90;;;;;;5030381;28;20458;-75
2021/06/20 04:28:38;;;;;;;2.70;2.17;;;20.40;99.90;;;;;;5031691;28;20478;-75
2021/06/20 04:31:05;;;;;;;3.07;2.53;;;20.40;99.90;;;;;;5030642;28;20835;-74
2021/06/20 04:33:32;;;;;;;5.97;2.70;;;20.40;99.90;;;;;;5031852;28;20528;-75
2021/06/20 04:35:59;;;;;;;5.50;2.50;;;20.40;99.90;;;;;;5030291;28;20478;-75
2021/06/20 04:38:26;;;;;;;3.77;2.37;;;20.50;99.90;;;;;;5030466;28;20499;-74
2021/06/20 04:41:00;;;;;;;7.50;2.60;;;20.50;99.90;;;;;;5030345;28;20465;-74
2021/06/20 04:44:42;;;;;;;4.10;1.77;;;20.50;99.90;;;;;;5030671;28;20422;-74
2021/06/20 04:46:36;;;;;;;2.50;2.30;;;20.60;99.90;;;;;;4996319;28;20982;-74
2021/06/20 04:49:11;;;;;;;3.23;2.13;;;20.60;99.90;;;;;;5011956;28;20450;-74
2021/06/20 04:51:40;;;;;;;3.33;2.30;;;20.60;99.90;;;;;;5013399;28;20494;-74
2021/06/20 04:54:08;;;;;;;4.33;2.67;;;20.70;99.90;;;;;;5031373;28;20454;-74
2021/06/20 04:56:35;;;;;;;2.60;2.20;;;20.70;99.90;;;;;;5031277;28;20449;-74
2021/06/20 04:59:03;;;;;;;4.73;2.53;;;20.70;99.90;;;;;;5031220;28;20833;-74
2021/06/20 05:01:37;;;;;;;3.33;2.47;;;20.70;99.90;;;;;;5023624;28;20464;-74
2021/06/20 05:04:08;;;;;;;5.37;2.30;;;20.70;99.90;;;;;;5019279;28;20420;-74
2021/06/20 05:06:36;;;;;;;2.97;2.13;;;20.70;99.90;;;;;;5045163;28;20968;-74
2021/06/20 05:09:04;;;;;;;4.57;2.80;;;20.70;99.90;;;;;;5031320;28;20467;-74
2021/06/20 05:11:31;;;;;;;5.93;2.10;;;20.70;99.90;;;;;;5031028;28;20468;-74
2021/06/20 05:13:58;;;;;;;7.20;2.27;;;20.70;99.90;;;;;;5031763;28;20445;-73
2021/06/20 05:16:25;;;;;;;5.83;2.47;;;20.70;99.90;;;;;;5030385;28;20465;-74
2021/06/20 05:18:52;;;;;;;4.57;2.63;;;20.70;99.90;;;;;;5030192;28;20496;-74
2021/06/20 05:21:19;;;;;;;2.27;2.07;;;20.70;99.90;;;;;;5030536;28;20473;-74
2021/06/20 05:23:46;;;;;;;4.63;3.10;;;20.70;99.90;;;;;;5030337;28;20934;-73
2021/06/20 05:26:14;;;;;;;2.20;2.00;;;20.70;99.90;;;;;;5029665;28;20832;-74
2021/06/20 05:28:43;;;;;;;3.63;2.23;;;20.80;99.90;;;;;;5031284;28;20470;-74
2021/06/20 05:31:10;;;;;;;4.83;2.50;;;20.70;99.90;;;;;;5028901;28;20476;-74
2021/06/20 05:33:37;;;;;;;4.67;2.53;;;20.70;99.90;;;;;;5030053;28;20429;-74
2021/06/20 05:36:04;;;;;;;3.43;2.03;;;20.70;99.90;;;;;;5030947;28;20469;-74
2021/06/20 05:38:31;;;;;;;3.60;2.30;;;20.80;99.90;;;;;;5030452;28;20460;-73
2021/06/20 05:40:59;;;;;;;3.10;2.80;;;20.90;99.90;;;;;;5031045;28;20459;-74
2021/06/20 05:43:26;;;;;;;4.37;2.50;;;20.90;99.90;;;;;;5031293;28;20428;-74
2021/06/20 05:45:53;;;;;;;5.60;2.43;;;21.00;99.90;;;;;;5045478;28;20574;-75
2021/06/20 05:48:20;;;;;;;2.47;2.17;;;21.00;99.90;;;;;;5029498;28;20470;-74
2021/06/20 05:50:48;;;;;;;2.53;2.33;;;21.10;99.90;;;;;;5029644;28;20520;-74
2021/06/20 05:53:14;;;;;;;3.03;2.30;;;21.10;99.90;;;;;;5014686;28;20440;-74
2021/06/20 05:55:41;;;;;;;3.40;2.17;;;21.20;99.90;;;;;;5026081;28;20994;-73
2021/06/20 05:58:08;;;;;;;5.43;2.40;;;21.30;99.90;;;;;;5010926;28;20470;-73
2021/06/20 06:00:35;;;;;;;2.47;2.27;;;21.40;99.90;;;;;;5020165;28;20563;-74
2021/06/20 06:03:02;;;;;;;5.83;2.90;;;21.40;99.90;;;;;;5011381;28;20489;-74
2021/06/20 06:05:29;;;;;;;4.43;2.13;;;21.50;99.90;;;;;;5031807;28;20599;-74
2021/06/20 06:07:56;;;;;;;4.70;2.13;;;21.70;99.90;;;;;;5016079;28;20475;-74
2021/06/20 06:10:28;;;;;;;2.80;2.17;;;22.00;99.90;;;;;;5034044;28;20552;-73
2021/06/20 06:12:56;;;;;;;9.17;2.23;;;22.40;99.90;;;;;;5031055;28;20944;-74
2021/06/20 06:15:25;;;;;;;6.97;1.83;;;23.00;99.90;;;;;;5034020;28;20457;-73
2021/06/20 06:17:52;;;;;;;5.60;2.60;;;23.40;99.90;;;;;;5045089;28;20545;-73
2021/06/20 06:20:20;;;;;;;2.10;1.60;;;23.70;99.90;;;;;;5014142;28;21448;-74
2021/06/20 06:22:47;;;;;;;3.13;2.17;;;24.20;99.90;;;;;;5026072;28;20803;-73
2021/06/20 06:25:15;;;;;;;1.87;1.53;;;24.30;99.90;;;;;;5033790;28;20461;-73
2021/06/20 06:27:43;;;;;;;2.87;1.70;;;24.20;99.90;;;;;;5034048;28;20568;-74
2021/06/20 06:30:11;;;;;;;3.00;2.07;;;24.20;99.90;;;;;;5033739;28;20417;-73
2021/06/20 06:32:39;;;;;;;2.60;1.80;;;24.30;99.90;;;;;;5033124;28;20436;-74
2021/06/20 06:35:07;;;;;;;2.17;1.80;;;24.20;99.90;;;;;;5032591;28;20511;-74
2021/06/20 06:37:34;;;;;;;2.40;1.77;;;24.20;99.90;;;;;;5023006;28;20540;-74
2021/06/20 06:40:03;;;;;;;2.27;2.00;;;24.10;99.90;;;;;;5013407;28;20432;-74
2021/06/20 06:42:30;;;;;;;4.23;2.50;;;24.20;99.90;;;;;;5014329;28;20429;-73
2021/06/20 06:44:57;;;;;;;2.87;2.20;;;24.20;99.90;;;;;;5017013;28;20808;-73
2021/06/20 06:47:29;;;;;;;4.73;2.53;;;24.20;99.90;;;;;;5013422;28;20903;-74
2021/06/20 06:49:58;;;;;;;2.77;2.10;;;24.10;99.90;;;;;;5029366;28;20491;-73
2021/06/20 06:52:25;;;;;;;3.17;1.70;;;24.10;99.90;;;;;;5041337;28;20481;-74
2021/06/20 06:54:52;;;;;;;2.67;1.80;;;24.10;99.90;;;;;;5035902;28;20426;-73
2021/06/20 06:57:20;;;;;;;3.90;1.63;;;24.00;99.40;;;;;;5052840;28;20491;-74
2021/06/20 06:59:50;;;;;;;3.30;2.20;;;24.00;98.90;;;;;;5035190;28;20461;-74
2021/06/20 07:02:23;;;;;;;2.53;2.27;;;23.90;98.30;;;;;;5034973;28;20463;-73
2021/06/20 07:04:50;;;;;;;2.73;1.93;;;23.90;98.80;;;;;;5053499;28;20426;-74
2021/06/20 07:07:21;;;;;;;2.53;2.00;;;23.90;97.30;;;;;;5030707;28;20503;-73
2021/06/20 07:09:48;;;;;;;3.87;2.47;;;23.80;98.50;;;;;;5033498;28;20455;-74
2021/06/20 07:12:15;;;;;;;2.80;2.07;;;23.80;98.70;;;;;;5038984;28;21065;-73
2021/06/20 07:14:43;;;;;;;4.00;2.03;;;23.90;97.90;;;;;;5033426;28;20420;-72
2021/06/20 07:17:10;;;;;;;2.30;1.50;;;23.90;97.70;;;;;;5030611;28;20982;-74
2021/06/20 07:19:38;;;;;;;3.13;2.20;;;23.90;97.20;;;;;;5033305;28;20453;-73
2021/06/20 07:22:08;;;;;;;5.50;1.90;;;23.90;97.00;;;;;;5031751;28;20475;-74
2021/06/20 07:24:35;;;;;;;2.30;1.67;;;24.10;96.60;;;;;;5031949;28;20453;-74
2021/06/20 07:27:02;;;;;;;3.77;1.73;;;24.20;94.80;;;;;;5032529;28;20543;-74
2021/06/20 07:29:29;;;;;;;2.93;2.37;;;24.30;93.90;;;;;;5033333;28;20551;-73
2021/06/20 07:32:00;;;;;;;1.90;1.60;;;24.30;93.60;;;;;;5030830;28;20470;-73
2021/06/20 07:34:27;;;;;;;2.47;1.77;;;24.30;93.20;;;;;;5032971;28;20434;-74
2021/06/20 07:36:57;;;;;;;3.20;1.60;;;24.50;93.90;;;;;;5027036;28;20468;-73
2021/06/20 07:39:24;;;;;;;2.67;2.23;;;24.50;93.80;;;;;;5013020;28;20479;-74
2021/06/20 07:41:51;;;;;;;2.13;1.30;;;24.50;91.90;;;;;;5011480;28;20499;-73
2021/06/20 07:44:18;;;;;;;5.97;1.83;;;24.50;90.70;;;;;;5012953;28;20426;-74
2021/06/20 07:46:45;;;;;;;1.70;1.50;;;24.50;90.70;;;;;;5039221;28;20475;-73
2021/06/20 07:49:13;;;;;;;3.10;2.43;;;24.50;90.50;;;;;;5031199;28;21015;-73
2021/06/20 07:51:39;;;;;;;2.77;2.43;;;24.40;89.70;;;;;;5031401;28;20591;-74
2021/06/20 07:54:06;;;;;;;1.90;1.60;;;24.30;89.60;;;;;;5032756;28;20420;-73
2021/06/20 07:56:33;;;;;;;2.10;1.90;;;24.30;89.80;;;;;;5030206;28;20464;-73
2021/06/20 07:59:00;;;;;;;3.03;1.90;;;24.40;90.60;;;;;;5021998;28;20833;-74
2021/06/20 08:01:28;;;;;;;3.27;1.77;;;24.50;88.90;;;;;;5024127;28;20592;-74
2021/06/20 08:03:56;;;;;;;2.17;1.93;;;24.60;88.90;;;;;;5032497;28;20523;-73
2021/06/20 08:06:23;;;;;;;3.27;1.70;;;24.70;86.40;;;;;;5013703;28;20468;-73
2021/06/20 08:08:56;;;;;;;3.60;1.87;;;24.70;85.80;;;;;;5047228;28;20809;-73
2021/06/20 08:11:24;;;;;;;1.60;1.50;;;24.70;83.10;;;;;;5031766;28;20470;-74
2021/06/20 08:13:51;;;;;;;3.10;2.07;;;24.80;84.70;;;;;;5030939;28;20453;-73
2021/06/20 08:16:19;;;;;;;1.47;1.37;;;24.90;84.50;;;;;;5030925;28;20538;-73
2021/06/20 08:18:46;;;;;;;2.40;2.07;;;25.00;81.70;;;;;;5030689;28;20454;-74
2021/06/20 08:21:14;;;;;;;3.83;2.03;;;25.00;81.20;;;;;;5030330;28;20504;-72
2021/06/20 08:23:43;;;;;;;4.83;3.60;;;25.20;82.20;;;;;;5030737;28;20539;-74
2021/06/20 08:26:13;;;;;;;4.70;2.40;;;25.30;80.80;;;;;;5031666;28;21066;-74
2021/06/20 08:28:40;;;;;;;2.97;2.30;;;25.40;79.10;;;;;;5022994;28;20488;-74
2021/06/20 08:31:07;;;;;;;3.30;2.00;;;25.40;80.80;;;;;;5029958;28;20452;-73
2021/06/20 08:33:35;;;;;;;2.17;1.40;;;25.60;76.40;;;;;;5030694;28;20444;-74
2021/06/20 08:36:02;;;;;;;4.10;1.67;;;25.60;74.70;;;;;;5030374;28;20482;-73
2021/06/20 08:38:29;;;;;;;2.23;1.60;;;25.70;76.80;;;;;;4996814;28;20468;-73
2021/06/20 08:40:57;;;;;;;1.93;1.73;;;25.80;74.00;;;;;;5037442;28;20495;-72
2021/06/20 08:43:24;;;;;;;3.27;1.50;;;25.90;76.00;;;;;;5030654;28;20511;-73
2021/06/20 08:45:52;;;;;;;2.37;1.53;;;25.90;72.50;;;;;;5030492;28;20447;-73
2021/06/20 08:48:20;;;;;;;3.33;1.70;;;25.90;71.80;;;;;;5031376;28;20559;-73
2021/06/20 08:50:49;;;;;;;1.60;1.43;;;25.90;67.70;;;;;;5031528;28;20455;-73
2021/06/20 08:53:18;;;;;;;1.60;1.50;;;25.70;69.20;;;;;;5030843;28;20439;-73
2021/06/20 08:55:45;;;;;;;1.50;1.10;;;25.50;68.20;;;;;;5030124;28;20448;-74
2021/06/20 08:58:24;;;;;;;3.27;1.60;;;25.40;70.20;;;;;;5031278;28;20528;-73
2021/06/20 09:00:51;;;;;;;2.07;1.40;;;25.20;70.60;;;;;;5031336;28;20467;-73
2021/06/20 09:03:17;;;;;;;3.63;1.17;;;25.10;70.70;;;;;;5012639;28;20494;-72
2021/06/20 09:05:57;;;;;;;2.67;1.83;;;24.90;68.60;;;;;;5011640;28;20463;-73
2021/06/20 09:08:26;;;;;;;1.57;1.43;;;24.80;71.80;;;;;;5027766;28;21012;-74
2021/06/20 09:10:57;;;;;;;2.47;1.30;;;24.80;73.20;;;;;;5029975;28;20468;-73
2021/06/20 09:13:34;;;;;;;1.87;1.77;;;24.70;72.50;;;;;;5030559;28;20477;-72
2021/06/20 09:16:04;;;;;;;3.67;1.90;;;24.60;74.90;;;;;;5029676;28;20875;-73
2021/06/20 09:18:31;;;;;;;2.60;2.10;;;24.60;73.10;;;;;;5030242;28;21031;-74
2021/06/20 09:20:58;;;;;;;3.50;1.97;;;24.60;73.70;;;;;;5029860;28;20465;-73
2021/06/20 09:23:25;;;;;;;1.93;1.83;;;24.60;74.80;;;;;;5029768;28;20954;-74
2021/06/20 09:25:59;;;;;;;2.20;1.73;;;24.70;75.50;;;;;;5031144;28;20523;-71
2021/06/20 09:28:34;;;;;;;2.10;1.60;;;24.70;73.80;;;;;;5031135;28;20875;-72
2021/06/20 09:31:03;;;;;;;2.50;1.87;;;24.70;75.00;;;;;;5030022;28;20463;-73
2021/06/20 09:33:33;;;;;;;2.60;1.87;;;24.70;74.90;;;;;;5030455;28;20416;-74
2021/06/20 09:36:01;;;;;;;2.37;1.97;;;24.80;75.30;;;;;;5030782;28;20545;-73
2021/06/20 09:38:28;;;;;;;2.30;2.10;;;25.10;75.60;;;;;;5030151;28;20463;-72
2021/06/20 09:41:05;;;;;;;3.50;2.00;;;25.40;73.70;;;;;;5034123;28;21003;-73
2021/06/20 09:43:34;;;;;;;4.17;2.20;;;25.50;74.00;;;;;;5034234;28;20435;-73
2021/06/20 09:46:02;;;;;;;1.63;1.53;;;25.70;74.20;;;;;;5033698;28;20463;-72
2021/06/20 09:48:35;;;;;;;3.93;1.60;;;25.90;72.50;;;;;;5033282;28;20485;-72
2021/06/20 09:51:15;;;;;;;2.93;2.00;;;26.00;69.40;;;;;;5034683;28;20471;-73
2021/06/20 09:53:48;;;;;;;2.20;1.67;;;26.10;65.70;;;;;;5033391;28;20805;-72
2021/06/20 09:56:23;;;;;;;2.30;1.50;;;26.20;64.30;;;;;;5019123;28;20460;-72
2021/06/20 09:59:07;;;;;;;1.43;1.33;;;26.20;62.20;;;;;;5014743;28;20510;-72
2021/06/20 10:01:38;;;;;;;1.63;1.53;;;26.30;62.70;;;;;;5016257;28;20495;-72
2021/06/20 10:04:05;;;;;;;1.53;1.43;;;26.50;63.00;;;;;;5033649;28;20531;-73
2021/06/20 10:06:32;;;;;;;1.50;1.40;;;26.60;63.20;;;;;;5033200;28;20968;-73
2021/06/20 10:08:59;;;;;;;1.90;1.30;;;26.70;62.10;;;;;;5034211;28;20817;-72
2021/06/20 10:11:27;;;;;;;2.47;1.90;;;26.60;62.00;;;;;;5034190;28;20464;-73
2021/06/20 10:13:54;;;;;;;3.83;1.70;;;26.50;61.50;;;;;;5033285;28;20429;-73
2021/06/20 10:16:32;;;;;;;1.83;1.70;;;26.30;66.00;;;;;;5032771;28;20471;-73
2021/06/20 10:19:16;;;;;;;1.80;1.70;;;26.30;66.00;;;;;;5032715;28;20472;-72
2021/06/20 10:21:47;;;;;;;1.70;1.60;;;26.30;65.30;;;;;;5033540;28;20475;-73
2021/06/20 10:24:20;;;;;;;1.70;1.60;;;26.20;66.10;;;;;;5033200;28;20475;-73
2021/06/20 10:27:03;;;;;;;2.37;1.53;;;26.20;66.50;;;;;;5032614;28;20464;-73
2021/06/20 10:29:36;;;;;;;2.90;1.87;;;26.10;67.10;;;;;;5033438;28;20460;-73
2021/06/20 10:32:18;;;;;;;3.00;1.93;;;26.10;67.20;;;;;;5014250;28;20997;-73
2021/06/20 10:34:59;;;;;;;2.50;1.67;;;26.10;61.30;;;;;;5013275;28;20445;-73
2021/06/20 10:37:31;;;;;;;2.13;1.83;;;26.00;64.00;;;;;;5017448;28;20973;-73
2021/06/20 10:40:00;;;;;;;2.80;2.20;;;26.00;64.00;;;;;;5013127;28;21065;-73
2021/06/20 10:42:38;;;;;;;1.73;1.57;;;26.00;62.10;;;;;;5014202;28;20441;-73
2021/06/20 10:45:07;;;;;;;2.00;1.80;;;26.00;61.00;;;;;;5015054;28;20505;-72
2021/06/20 10:47:35;;;;;;;1.37;1.27;;;26.30;60.60;;;;;;5032470;28;20420;-73
2021/06/20 10:50:12;;;;;;;2.07;1.30;;;26.50;59.40;;;;;;5034052;28;20464;-73
2021/06/20 10:52:40;;;;;;;3.70;2.10;;;26.60;58.20;;;;;;5022072;28;20547;-73
2021/06/20 10:55:09;;;;;;;1.90;1.80;;;26.60;58.30;;;;;;5032726;28;20551;-73
2021/06/20 10:57:46;;;;;;;2.50;2.30;;;26.50;58.20;;;;;;5032319;28;20518;-73
2021/06/20 11:00:31;;;;;;;2.80;2.60;;;26.50;56.90;;;;;;5031682;28;20448;-73
2021/06/20 11:03:11;;;;;;;2.67;2.47;;;26.50;57.20;;;;;;5033834;28;20456;-73
2021/06/20 11:06:13;;;;;;;2.50;2.03;;;26.60;57.50;;;;;;5033336;28;20513;-73
2021/06/20 11:08:52;;;;;;;2.40;2.20;;;26.70;57.60;;;;;;5024632;28;20947;-73
2021/06/20 11:11:21;;;;;;;1.70;1.60;;;26.80;56.90;;;;;;5033137;28;21186;-73
2021/06/20 11:13:56;;;;;;;1.50;1.40;;;27.00;56.30;;;;;;5032217;28;20937;-73
2021/06/20 11:16:37;;;;;;;1.70;1.60;;;27.10;54.60;;;;;;5030838;28;20474;-73
2021/06/20 11:19:22;;;;;;;3.13;2.07;;;27.10;56.60;;;;;;5032991;28;20440;-73
2021/06/20 11:22:06;;;;;;;1.60;1.50;;;27.10;57.10;;;;;;5032292;28;20472;-74
2021/06/20 11:24:38;;;;;;;4.40;1.73;;;27.20;57.20;;;;;;5032037;28;20483;-73
2021/06/20 11:27:05;;;;;;;2.03;1.73;;;27.30;53.30;;;;;;5031474;28;20463;-73
2021/06/20 11:29:50;;;;;;;4.33;3.70;;;27.30;51.50;;;;;;5031927;28;20487;-73
2021/06/20 11:32:27;;;;;;;2.47;1.90;;;27.00;56.60;;;;;;5031827;28;20503;-73
2021/06/20 11:34:57;;;;;;;1.80;1.70;;;26.90;54.30;;;;;;5031837;28;20452;-73
2021/06/20 11:37:27;;;;;;;1.77;1.60;;;26.80;55.10;;;;;;5031836;28;20471;-74
2021/06/20 11:40:00;;;;;;;3.60;2.40;;;26.50;57.50;;;;;;5031531;28;20448;-74
2021/06/20 11:42:33;;;;;;;2.30;2.00;;;26.50;58.40;;;;;;5031755;28;20555;-73
2021/06/20 11:45:02;;;;;;;1.90;1.80;;;26.50;55.20;;;;;;5032996;28;20428;-73
2021/06/20 11:47:43;;;;;;;2.93;1.90;;;26.40;57.30;;;;;;5031708;28;20478;-72
2021/06/20 11:50:24;;;;;;;6.10;2.07;;;26.50;55.60;;;;;;5015294;28;20478;-74
2021/06/20 11:53:01;;;;;;;2.23;1.87;;;26.60;59.20;;;;;;5032339;28;20929;-73
2021/06/20 11:55:33;;;;;;;2.10;1.90;;;26.60;55.10;;;;;;5030456;28;20526;-73
2021/06/20 11:58:05;;;;;;;2.33;1.67;;;26.60;56.70;;;;;;5031158;28;20555;-73
2021/06/20 12:00:34;;;;;;;1.87;1.77;;;26.50;56.60;;;;;;5031273;28;20888;-74
2021/06/20 12:03:05;;;;;;;3.07;1.50;;;26.60;56.60;;;;;;5032293;28;20424;-74
2021/06/20 12:05:42;;;;;;;1.53;1.43;;;26.60;54.10;;;;;;5030898;28;20968;-73
2021/06/20 12:08:09;;;;;;;1.40;1.30;;;26.50;55.10;;;;;;5016343;28;20602;-72
2021/06/20 12:10:41;;;;;;;2.40;1.60;;;26.60;56.60;;;;;;5010740;28;20507;-73
2021/06/20 12:13:08;;;;;;;2.53;1.70;;;26.50;53.50;;;;;;5025893;28;20436;-74
2021/06/20 12:15:37;;;;;;;2.73;2.20;;;26.40;55.60;;;;;;5031612;28;20984;-74
2021/06/20 12:18:08;;;;;;;2.30;2.10;;;26.40;55.50;;;;;;5030117;28;20472;-73
2021/06/20 12:20:40;;;;;;;8.40;3.17;;;26.50;54.30;;;;;;5030546;28;20871;-74
2021/06/20 12:23:09;;;;;;;11.73;10.37;;;26.50;59.00;;;;;;5031045;28;20494;-73
2021/06/20 12:25:43;;;;;;;4.30;3.73;;;26.70;55.40;;;;;;5032251;28;20583;-73
2021/06/20 12:28:13;;;;;;;6.70;5.40;;;26.70;57.00;;;;;;5014449;28;20855;-73
2021/06/20 12:30:42;;;;;;;4.70;4.20;;;26.70;58.10;;;;;;5030567;28;20495;-73
2021/06/20 12:33:10;;;;;;;5.63;3.43;;;26.60;57.30;;;;;;5032186;28;20428;-73
2021/06/20 12:35:38;;;;;;;3.73;2.93;;;26.50;59.60;;;;;;5030166;28;20470;-74
2021/06/20 12:38:16;;;;;;;2.70;2.27;;;26.50;58.10;;;;;;5016460;28;20473;-72
2021/06/20 12:40:44;;;;;;;2.87;2.13;;;26.70;58.70;;;;;;5011765;28;20836;-73
2021/06/20 12:43:16;;;;;;;3.27;2.40;;;26.70;56.80;;;;;;5012261;28;20429;-73
2021/06/20 12:45:43;;;;;;;1.77;1.67;;;26.90;55.10;;;;;;5010409;28;20838;-74
2021/06/20 12:48:19;;;;;;;1.53;1.43;;;27.00;54.60;;;;;;5031195;28;20440;-72
2021/06/20 12:50:51;;;;;;;1.67;1.57;;;27.10;54.10;;;;;;5031296;28;20479;-72
2021/06/20 12:53:36;;;;;;;3.47;1.60;;;27.10;54.80;;;;;;5030676;28;20443;-73
2021/06/20 12:56:05;;;;;;;2.03;1.70;;;27.10;54.80;;;;;;5031586;28;20470;-73
2021/06/20 12:58:33;;;;;;;2.30;1.80;;;27.10;55.20;;;;;;5031660;28;20544;-74